Time;durP1;ratioP1;P1;durP2;ratioP2;P2;SDS_P1;SDS_P2;PMS_P1;PMS_P2;Temp;Humidity;BMP_temperature;BMP_pressure;BME280_temperature;BME280_humidity;BME280_pressure;Samples;Min_cycle;Max_cycle;Signal;HPM_P1;HPM_P2
2022/10/28 00:01:36;;;;;;;5.10;3.65;;;;;;;;;;5123404;28;20195;-67
2022/10/28 00:04:02;;;;;;;6.85;3.70;;;;;;;;;;5123136;28;20195;-67
2022/10/28 00:06:30;;;;;;;8.07;4.05;;;;;;;;;;5123086;28;20397;-67
2022/10/28 00:08:56;;;;;;;9.82;4.43;;;;;;;;;;5122837;28;20541;-67
2022/10/28 00:11:23;;;;;;;12.07;4.00;;;;;;;;;;5122223;28;20195;-67
2022/10/28 00:13:52;;;;;;;10.00;4.45;;;;;;;;;;5123018;27;20194;-67
2022/10/28 00:16:20;;;;;;;11.88;4.78;;;;;;;;;;5122965;28;20630;-67
2022/10/28 00:18:47;;;;;;;13.38;4.53;;;;;;;;;;5122701;28;20195;-67
2022/10/28 00:21:14;;;;;;;9.68;4.60;;;;;;;;;;5122905;28;20194;-67
2022/10/28 00:23:41;;;;;;;17.90;5.30;;;;;;;;;;5122724;28;20390;-67
2022/10/28 00:26:08;;;;;;;11.30;5.00;;;;;;;;;;5122961;28;20198;-67
2022/10/28 00:28:34;;;;;;;9.98;5.28;;;;;;;;;;5122439;28;20226;-67
2022/10/28 00:31:05;;;;;;;10.63;4.90;;;;;;;;;;5122756;28;20195;-67
2022/10/28 00:33:32;;;;;;;11.20;4.60;;;;;;;;;;5122545;28;20202;-67
2022/10/28 00:36:07;;;;;;;12.18;5.00;;;;;;;;;;5122546;28;20277;-67
2022/10/28 00:38:33;;;;;;;8.57;4.88;;;;;;;;;;5122149;28;20375;-67
2022/10/28 00:40:59;;;;;;;15.88;5.40;;;;;;;;;;5122658;28;20199;-67
2022/10/28 00:43:33;;;;;;;17.10;5.15;;;;;;;;;;5122538;28;20203;-67
2022/10/28 00:45:59;;;;;;;10.13;4.97;;;;;;;;;;5122439;28;20198;-67
2022/10/28 00:48:26;;;;;;;10.65;5.35;;;;;;;;;;5122090;28;20589;-67
2022/10/28 00:50:53;;;;;;;8.88;4.78;;;;;;;;;;5122175;28;20363;-67
2022/10/28 00:53:21;;;;;;;8.90;4.40;;;;;;;;;;5122547;28;20199;-67
2022/10/28 00:55:48;;;;;;;8.70;4.82;;;;;;;;;;5122382;28;20195;-67
2022/10/28 00:58:14;;;;;;;11.90;4.85;;;;;;;;;;5122140;28;20191;-67
2022/10/28 01:00:41;;;;;;;11.90;5.20;;;;;;;;;;5122306;28;20210;-67
2022/10/28 01:03:08;;;;;;;18.02;5.28;;;;;;;;;;5122147;28;20218;-67
2022/10/28 01:05:37;;;;;;;8.02;5.47;;;;;;;;;;5121604;28;20199;-67
2022/10/28 01:08:05;;;;;;;9.90;4.93;;;;;;;;;;5121971;28;20452;-67
2022/10/28 01:10:42;;;;;;;10.57;4.85;;;;;;;;;;5122135;28;20226;-67
2022/10/28 01:13:11;;;;;;;10.95;5.43;;;;;;;;;;5122265;28;20194;-67
2022/10/28 01:15:44;;;;;;;15.20;4.80;;;;;;;;;;5122294;28;20398;-67
2022/10/28 01:18:17;;;;;;;9.63;4.47;;;;;;;;;;5121844;28;20210;-67
2022/10/28 01:20:56;;;;;;;9.18;5.22;;;;;;;;;;5123207;28;20240;-67
2022/10/28 01:23:28;;;;;;;14.88;5.30;;;;;;;;;;5126349;28;20183;-67
2022/10/28 01:26:12;;;;;;;13.85;4.38;;;;;;;;;;5126418;28;20199;-67
2022/10/28 01:28:50;;;;;;;11.52;4.75;;;;;;;;;;5125795;28;20282;-67
2022/10/28 01:31:23;;;;;;;7.50;4.22;;;;;;;;;;5126187;28;20371;-67
2022/10/28 01:33:51;;;;;;;13.02;5.32;;;;;;;;;;5126034;27;20209;-67
2022/10/28 01:36:20;;;;;;;10.68;5.45;;;;;;;;;;5125851;27;20203;-67
2022/10/28 01:38:50;;;;;;;10.25;4.85;;;;;;;;;;5125655;28;20237;-67
2022/10/28 01:41:17;;;;;;;8.45;4.70;;;;;;;;;;5125962;28;20616;-67
2022/10/28 01:43:47;;;;;;;17.45;4.93;;;;;;;;;;5125934;28;20195;-67
2022/10/28 01:46:16;;;;;;;10.13;4.72;;;;;;;;;;5125865;28;20195;-67
2022/10/28 01:48:46;;;;;;;6.60;4.45;;;;;;;;;;5125619;28;20219;-67
2022/10/28 01:51:15;;;;;;;11.75;4.45;;;;;;;;;;5125999;28;20198;-67
2022/10/28 01:53:42;;;;;;;9.48;4.63;;;;;;;;;;5125519;28;20195;-67
2022/10/28 01:56:10;;;;;;;10.88;5.18;;;;;;;;;;5125255;28;20263;-67
2022/10/28 01:58:38;;;;;;;11.68;5.22;;;;;;;;;;5125181;28;20198;-67
2022/10/28 02:01:05;;;;;;;9.90;4.55;;;;;;;;;;5125661;28;20199;-67
2022/10/28 02:03:31;;;;;;;7.38;4.35;;;;;;;;;;5125607;28;20198;-67
2022/10/28 02:06:00;;;;;;;12.65;4.78;;;;;;;;;;5125465;28;20203;-67
2022/10/28 02:08:33;;;;;;;10.00;5.10;;;;;;;;;;5124958;28;20219;-67
2022/10/28 02:11:15;;;;;;;9.23;5.10;;;;;;;;;;5125217;28;20199;-67
2022/10/28 02:13:53;;;;;;;14.82;4.97;;;;;;;;;;5125317;28;20218;-67
2022/10/28 02:16:22;;;;;;;12.40;4.47;;;;;;;;;;5125323;28;20540;-67
2022/10/28 02:18:53;;;;;;;10.60;4.63;;;;;;;;;;5124821;28;20205;-67
2022/10/28 02:21:27;;;;;;;9.38;4.63;;;;;;;;;;5125124;28;20195;-67
2022/10/28 02:23:56;;;;;;;10.55;5.00;;;;;;;;;;5125243;27;20191;-67
2022/10/28 02:26:26;;;;;;;6.43;4.82;;;;;;;;;;5125077;28;20191;-67
2022/10/28 02:28:56;;;;;;;13.05;5.63;;;;;;;;;;5124662;28;20290;-67
2022/10/28 02:31:24;;;;;;;10.25;5.22;;;;;;;;;;5124850;28;20212;-67
2022/10/28 02:33:53;;;;;;;7.30;4.90;;;;;;;;;;5123763;28;20201;-67
2022/10/28 02:36:22;;;;;;;7.88;5.88;;;;;;;;;;5124691;28;20219;-67
2022/10/28 02:38:50;;;;;;;9.35;5.22;;;;;;;;;;5124439;28;20205;-67
2022/10/28 02:41:18;;;;;;;15.77;5.00;;;;;;;;;;5124597;28;20195;-67
2022/10/28 02:43:47;;;;;;;10.90;5.10;;;;;;;;;;5124564;28;20502;-67
2022/10/28 02:46:14;;;;;;;9.90;5.35;;;;;;;;;;5124541;28;20214;-67
2022/10/28 02:48:42;;;;;;;11.32;4.63;;;;;;;;;;5124157;27;20229;-67
2022/10/28 02:51:10;;;;;;;16.42;5.25;;;;;;;;;;5124550;28;20203;-67
2022/10/28 02:53:41;;;;;;;9.48;5.03;;;;;;;;;;5124463;28;20241;-67
2022/10/28 02:56:08;;;;;;;7.43;4.50;;;;;;;;;;5124651;28;20342;-67
2022/10/28 02:58:38;;;;;;;13.55;4.80;;;;;;;;;;5124096;28;20199;-67
2022/10/28 03:01:04;;;;;;;10.18;4.72;;;;;;;;;;5124232;27;20199;-67
2022/10/28 03:03:30;;;;;;;6.15;4.43;;;;;;;;;;5124349;28;20195;-67
2022/10/28 03:05:57;;;;;;;15.18;5.20;;;;;;;;;;5124455;28;20596;-67
2022/10/28 03:08:24;;;;;;;8.18;4.32;;;;;;;;;;5123672;28;20382;-67
2022/10/28 03:10:51;;;;;;;12.57;4.03;;;;;;;;;;5124058;28;20219;-67
2022/10/28 03:13:18;;;;;;;7.20;4.25;;;;;;;;;;5123991;28;20203;-67
2022/10/28 03:15:44;;;;;;;10.38;4.13;;;;;;;;;;5123790;28;20201;-67
2022/10/28 03:18:10;;;;;;;12.40;4.47;;;;;;;;;;5124054;28;20371;-67
2022/10/28 03:20:36;;;;;;;9.63;4.47;;;;;;;;;;5124011;28;20218;-67
2022/10/28 03:23:03;;;;;;;7.55;4.30;;;;;;;;;;5123976;28;20203;-67
2022/10/28 03:25:29;;;;;;;9.75;4.40;;;;;;;;;;5123782;28;20210;-67
2022/10/28 03:27:56;;;;;;;7.93;4.95;;;;;;;;;;5123948;28;20310;-67
2022/10/28 03:30:23;;;;;;;7.50;5.22;;;;;;;;;;5123455;28;20223;-67
2022/10/28 03:32:49;;;;;;;12.13;4.95;;;;;;;;;;5123746;28;20199;-67
2022/10/28 03:35:15;;;;;;;15.07;6.55;;;;;;;;;;5123671;28;20282;-67
2022/10/28 03:37:42;;;;;;;12.57;5.25;;;;;;;;;;5123271;28;20276;-67
2022/10/28 03:40:09;;;;;;;9.65;4.40;;;;;;;;;;5123681;28;20179;-67
2022/10/28 03:42:35;;;;;;;13.52;4.82;;;;;;;;;;5123340;28;20393;-67
2022/10/28 03:45:03;;;;;;;7.35;5.13;;;;;;;;;;5123054;28;20199;-67
2022/10/28 03:47:29;;;;;;;13.68;5.38;;;;;;;;;;5123573;28;20206;-67
2022/10/28 03:49:55;;;;;;;5.45;4.22;;;;;;;;;;5123158;28;20219;-67
2022/10/28 03:52:22;;;;;;;10.27;4.63;;;;;;;;;;5123315;27;20199;-67
2022/10/28 03:54:48;;;;;;;7.70;4.28;;;;;;;;;;5123146;28;20199;-67
2022/10/28 03:57:14;;;;;;;6.32;4.40;;;;;;;;;;5123078;28;20233;-67
2022/10/28 03:59:40;;;;;;;7.97;4.85;;;;;;;;;;5122990;28;20195;-67
2022/10/28 04:02:08;;;;;;;7.57;5.03;;;;;;;;;;5123280;28;20569;-67
2022/10/28 04:04:34;;;;;;;14.35;5.75;;;;;;;;;;5122947;28;20202;-67
2022/10/28 04:07:01;;;;;;;12.63;5.43;;;;;;;;;;5123071;28;20526;-67
2022/10/28 04:09:27;;;;;;;11.80;4.82;;;;;;;;;;5122690;28;20526;-67
2022/10/28 04:11:53;;;;;;;14.38;5.82;;;;;;;;;;5122826;28;20199;-67
2022/10/28 04:14:19;;;;;;;10.27;4.95;;;;;;;;;;5123084;28;20524;-67
2022/10/28 04:16:46;;;;;;;7.07;4.60;;;;;;;;;;5122947;28;20393;-67
2022/10/28 04:19:13;;;;;;;10.75;4.45;;;;;;;;;;5123033;28;20191;-67
2022/10/28 04:21:39;;;;;;;14.98;4.97;;;;;;;;;;5122831;28;20195;-67
2022/10/28 04:24:06;;;;;;;11.45;4.75;;;;;;;;;;5122840;28;20216;-67
2022/10/28 04:26:32;;;;;;;12.90;5.63;;;;;;;;;;5122624;28;20202;-67
2022/10/28 04:28:58;;;;;;;13.82;5.05;;;;;;;;;;5122366;28;20231;-67
2022/10/28 04:31:25;;;;;;;17.30;6.18;;;;;;;;;;5122691;28;20386;-67
2022/10/28 04:33:51;;;;;;;12.85;5.90;;;;;;;;;;5122656;27;20195;-67
2022/10/28 04:36:19;;;;;;;9.80;5.07;;;;;;;;;;5122613;28;20256;-67
2022/10/28 04:38:45;;;;;;;9.88;5.63;;;;;;;;;;5122193;28;20203;-67
2022/10/28 04:41:12;;;;;;;15.27;5.85;;;;;;;;;;5122293;28;20216;-67
2022/10/28 04:43:38;;;;;;;10.98;5.05;;;;;;;;;;5122582;28;20202;-67
2022/10/28 04:46:05;;;;;;;16.85;5.15;;;;;;;;;;5122458;28;20195;-66
2022/10/28 04:48:31;;;;;;;16.77;5.60;;;;;;;;;;5122271;28;20187;-66
2022/10/28 04:50:57;;;;;;;14.98;5.13;;;;;;;;;;5122294;28;20225;-66
2022/10/28 04:53:25;;;;;;;11.75;5.40;;;;;;;;;;5122831;28;20386;-66
2022/10/28 04:55:51;;;;;;;13.63;5.00;;;;;;;;;;5121621;28;20195;-66
2022/10/28 04:58:17;;;;;;;14.85;6.05;;;;;;;;;;5122173;28;20198;-66
2022/10/28 05:00:44;;;;;;;12.20;5.28;;;;;;;;;;5122367;28;20491;-66
2022/10/28 05:03:10;;;;;;;11.45;5.57;;;;;;;;;;5122324;28;20383;-66
2022/10/28 05:05:36;;;;;;;7.80;5.10;;;;;;;;;;5122271;28;20194;-66
2022/10/28 05:08:02;;;;;;;15.23;6.50;;;;;;;;;;5121914;28;20194;-66
2022/10/28 05:10:30;;;;;;;19.83;6.35;;;;;;;;;;5122194;28;20230;-66
2022/10/28 05:12:56;;;;;;;16.42;5.47;;;;;;;;;;5122309;28;20196;-66
2022/10/28 05:15:25;;;;;;;11.63;6.50;;;;;;;;;;5122185;28;20202;-66
2022/10/28 05:17:52;;;;;;;12.07;5.75;;;;;;;;;;5121943;28;20206;-66
2022/10/28 05:20:19;;;;;;;20.85;6.25;;;;;;;;;;5122139;28;20521;-66
2022/10/28 05:22:46;;;;;;;13.82;6.25;;;;;;;;;;5122071;28;20199;-66
2022/10/28 05:25:12;;;;;;;21.20;5.95;;;;;;;;;;5122055;28;20195;-66
2022/10/28 05:27:40;;;;;;;25.55;11.05;;;;;;;;;;5121699;28;20552;-66
2022/10/28 05:30:07;;;;;;;13.45;6.68;;;;;;;;;;5121661;28;20222;-66
2022/10/28 05:32:33;;;;;;;15.13;7.13;;;;;;;;;;5121261;28;20262;-66
2022/10/28 05:34:59;;;;;;;11.73;6.15;;;;;;;;;;5121949;28;20199;-66
2022/10/28 05:37:26;;;;;;;21.70;6.60;;;;;;;;;;5121331;28;20257;-66
2022/10/28 05:39:52;;;;;;;21.42;6.72;;;;;;;;;;5121654;28;20379;-66
2022/10/28 05:42:18;;;;;;;17.75;7.32;;;;;;;;;;5121582;28;20203;-70
2022/10/28 05:44:46;;;;;;;16.17;6.90;;;;;;;;;;5105772;28;20519;-57
2022/10/28 05:47:12;;;;;;;18.40;7.93;;;;;;;;;;5113964;28;20215;-58
2022/10/28 05:49:38;;;;;;;16.40;7.25;;;;;;;;;;5109800;28;20230;-57
2022/10/28 05:52:05;;;;;;;16.08;6.88;;;;;;;;;;5095537;28;20215;-57
2022/10/28 05:54:31;;;;;;;11.93;6.53;;;;;;;;;;5095435;28;20632;-58
2022/10/28 05:56:57;;;;;;;16.20;6.40;;;;;;;;;;5095005;28;20208;-58
2022/10/28 05:59:24;;;;;;;12.65;5.82;;;;;;;;;;5095586;28;20210;-58
2022/10/28 06:01:51;;;;;;;12.63;5.40;;;;;;;;;;5096935;28;20533;-58
2022/10/28 06:04:17;;;;;;;12.73;6.30;;;;;;;;;;5116166;28;20207;-58
2022/10/28 06:06:44;;;;;;;11.13;6.20;;;;;;;;;;5116087;28;20207;-58
2022/10/28 06:09:10;;;;;;;17.13;6.63;;;;;;;;;;5118265;28;20217;-58
2022/10/28 06:11:36;;;;;;;10.85;5.63;;;;;;;;;;5119810;28;20211;-58
2022/10/28 06:14:03;;;;;;;12.65;6.22;;;;;;;;;;5116804;28;20207;-58
2022/10/28 06:16:29;;;;;;;8.52;6.05;;;;;;;;;;5116200;28;20218;-58
2022/10/28 06:18:57;;;;;;;12.35;6.82;;;;;;;;;;5116298;28;20211;-58
2022/10/28 06:21:23;;;;;;;15.05;6.35;;;;;;;;;;5117166;28;20617;-58
2022/10/28 06:23:50;;;;;;;15.15;5.95;;;;;;;;;;5115931;28;20285;-58
2022/10/28 06:26:17;;;;;;;9.40;5.57;;;;;;;;;;5115837;28;20274;-58
2022/10/28 06:28:43;;;;;;;10.52;5.65;;;;;;;;;;5113160;28;20230;-58
2022/10/28 06:31:09;;;;;;;10.70;5.90;;;;;;;;;;5107315;28;20462;-58
2022/10/28 06:33:35;;;;;;;17.35;5.57;;;;;;;;;;5117084;28;20215;-58
2022/10/28 06:36:03;;;;;;;12.07;6.30;;;;;;;;;;5118466;28;20207;-55
2022/10/28 06:38:31;;;;;;;11.18;5.60;;;;;;;;;;5117382;28;20536;-57
2022/10/28 06:40:57;;;;;;;14.38;6.57;;;;;;;;;;5117948;28;20401;-56
2022/10/28 06:43:23;;;;;;;18.85;7.53;;;;;;;;;;5117719;28;20218;-57
2022/10/28 06:45:53;;;;;;;13.30;5.93;;;;;;;;;;5116914;28;20218;-56
2022/10/28 06:48:20;;;;;;;19.73;6.70;;;;;;;;;;5118247;28;20202;-57
2022/10/28 06:50:46;;;;;;;16.20;6.00;;;;;;;;;;5117918;27;20546;-58
2022/10/28 06:53:14;;;;;;;15.55;6.82;;;;;;;;;;5118143;28;20546;-58
2022/10/28 06:55:40;;;;;;;13.43;6.53;;;;;;;;;;5116791;28;20293;-55
2022/10/28 06:58:06;;;;;;;14.52;6.22;;;;;;;;;;5116995;28;20203;-56
2022/10/28 07:00:33;;;;;;;14.50;6.70;;;;;;;;;;5117516;28;20207;-57
2022/10/28 07:02:59;;;;;;;24.58;7.10;;;;;;;;;;5117779;28;20401;-57
2022/10/28 07:05:27;;;;;;;14.57;6.07;;;;;;;;;;5116483;28;20207;-55
2022/10/28 07:07:53;;;;;;;21.70;6.88;;;;;;;;;;5116602;28;20211;-57
2022/10/28 07:10:21;;;;;;;18.27;7.72;;;;;;;;;;5117636;27;20235;-56
2022/10/28 07:12:47;;;;;;;23.20;7.78;;;;;;;;;;5117080;28;20218;-54
2022/10/28 07:15:13;;;;;;;16.65;7.43;;;;;;;;;;5114648;28;20211;-58
2022/10/28 07:17:40;;;;;;;11.75;6.80;;;;;;;;;;5117141;28;20220;-58
2022/10/28 07:20:07;;;;;;;12.15;6.78;;;;;;;;;;5116285;28;20214;-58
2022/10/28 07:22:33;;;;;;;19.63;6.95;;;;;;;;;;5117529;28;20207;-57
2022/10/28 07:24:59;;;;;;;19.75;7.60;;;;;;;;;;5117335;28;20210;-58
2022/10/28 07:27:27;;;;;;;17.10;7.25;;;;;;;;;;5117200;28;20421;-58
2022/10/28 07:29:53;;;;;;;19.67;8.45;;;;;;;;;;5117039;28;20263;-57
2022/10/28 07:32:19;;;;;;;18.23;8.02;;;;;;;;;;5116653;28;20219;-57
2022/10/28 07:34:46;;;;;;;22.27;7.53;;;;;;;;;;5116847;27;20214;-58
2022/10/28 07:37:12;;;;;;;18.83;8.43;;;;;;;;;;5115951;27;20273;-57
2022/10/28 07:39:38;;;;;;;15.00;7.60;;;;;;;;;;5115228;28;20207;-57
2022/10/28 07:42:05;;;;;;;16.67;7.60;;;;;;;;;;5116009;27;20470;-57
2022/10/28 07:44:32;;;;;;;16.17;7.63;;;;;;;;;;5115362;28;20288;-57
2022/10/28 07:46:59;;;;;;;21.40;8.35;;;;;;;;;;5115975;28;20211;-57
2022/10/28 07:49:25;;;;;;;18.63;7.82;;;;;;;;;;5115938;28;20518;-57
2022/10/28 07:51:52;;;;;;;17.83;7.85;;;;;;;;;;5115455;28;20630;-58
2022/10/28 07:54:18;;;;;;;18.90;8.40;;;;;;;;;;5116088;28;20218;-57
2022/10/28 07:56:44;;;;;;;16.73;7.72;;;;;;;;;;5115901;28;20369;-58
2022/10/28 07:59:10;;;;;;;16.88;7.47;;;;;;;;;;5115916;28;20207;-60
2022/10/28 08:01:38;;;;;;;16.73;8.23;;;;;;;;;;5115914;28;20275;-60
2022/10/28 08:04:04;;;;;;;15.18;7.22;;;;;;;;;;5115187;28;20211;-60
2022/10/28 08:06:31;;;;;;;14.63;7.20;;;;;;;;;;5116062;28;20210;-60
2022/10/28 08:08:57;;;;;;;15.13;7.47;;;;;;;;;;5116118;28;20207;-60
2022/10/28 08:11:24;;;;;;;19.00;7.53;;;;;;;;;;5115642;27;20227;-60
2022/10/28 08:13:50;;;;;;;17.05;6.75;;;;;;;;;;5115298;28;20211;-60
2022/10/28 08:16:17;;;;;;;21.17;7.10;;;;;;;;;;5104273;28;20219;-60
2022/10/28 08:18:45;;;;;;;17.02;7.57;;;;;;;;;;5116037;28;20232;-60
2022/10/28 08:21:12;;;;;;;15.85;7.68;;;;;;;;;;5116085;28;20533;-60
2022/10/28 08:23:40;;;;;;;17.65;8.05;;;;;;;;;;5116480;28;20264;-60
2022/10/28 08:26:06;;;;;;;27.38;8.98;;;;;;;;;;5116239;28;20215;-60
2022/10/28 08:28:33;;;;;;;20.27;7.97;;;;;;;;;;5115206;28;20590;-60
2022/10/28 08:31:00;;;;;;;19.60;8.57;;;;;;;;;;5114897;28;20255;-60
2022/10/28 08:33:26;;;;;;;26.08;8.68;;;;;;;;;;5115722;28;20211;-60
2022/10/28 08:35:54;;;;;;;25.40;9.60;;;;;;;;;;5115484;28;20211;-60
2022/10/28 08:38:20;;;;;;;23.02;8.75;;;;;;;;;;5115709;28;20246;-60
2022/10/28 08:40:52;;;;;;;16.35;8.90;;;;;;;;;;5115104;28;20210;-60
2022/10/28 08:43:21;;;;;;;15.98;7.68;;;;;;;;;;5116184;28;20217;-61
2022/10/28 08:45:52;;;;;;;22.92;8.90;;;;;;;;;;5119439;28;20210;-59
2022/10/28 08:48:21;;;;;;;16.85;7.85;;;;;;;;;;5118895;28;20219;-60
2022/10/28 08:50:49;;;;;;;17.13;7.78;;;;;;;;;;5119403;28;20456;-61
2022/10/28 08:53:18;;;;;;;14.88;7.20;;;;;;;;;;5118782;28;20260;-61
2022/10/28 08:55:46;;;;;;;16.90;7.35;;;;;;;;;;5118879;28;20203;-58
2022/10/28 08:58:16;;;;;;;13.32;7.30;;;;;;;;;;5118856;28;20210;-59
2022/10/28 09:00:44;;;;;;;15.68;7.40;;;;;;;;;;5118066;28;20195;-58
2022/10/28 09:03:16;;;;;;;15.80;7.57;;;;;;;;;;5118098;28;20214;-59
2022/10/28 09:05:44;;;;;;;15.07;7.93;;;;;;;;;;5118016;28;20202;-59
2022/10/28 09:08:13;;;;;;;15.65;7.78;;;;;;;;;;5118801;28;20210;-59
2022/10/28 09:10:47;;;;;;;18.70;7.70;;;;;;;;;;5118767;28;20233;-57
2022/10/28 09:13:17;;;;;;;19.85;7.72;;;;;;;;;;5119005;28;20571;-56
2022/10/28 09:15:48;;;;;;;25.30;8.10;;;;;;;;;;5118272;28;20207;-58
2022/10/28 09:18:17;;;;;;;18.15;7.00;;;;;;;;;;5118748;28;20444;-59
2022/10/28 09:20:47;;;;;;;15.57;7.30;;;;;;;;;;5118607;28;20211;-59
2022/10/28 09:23:20;;;;;;;18.80;7.40;;;;;;;;;;5119409;28;20440;-59
2022/10/28 09:25:53;;;;;;;12.40;7.35;;;;;;;;;;5118935;28;20210;-59
2022/10/28 09:28:27;;;;;;;14.27;7.90;;;;;;;;;;5118577;28;20237;-59
2022/10/28 09:30:57;;;;;;;17.45;7.85;;;;;;;;;;5113944;28;20545;-59
2022/10/28 09:33:40;;;;;;;14.88;6.85;;;;;;;;;;5118674;28;20214;-58
2022/10/28 09:36:09;;;;;;;16.35;6.20;;;;;;;;;;5118836;28;20214;-59
2022/10/28 09:38:37;;;;;;;15.30;6.75;;;;;;;;;;5117686;28;20207;-58
2022/10/28 09:41:07;;;;;;;17.88;7.30;;;;;;;;;;5118016;28;20365;-59
2022/10/28 09:43:35;;;;;;;10.90;6.47;;;;;;;;;;5121310;28;20214;-58
2022/10/28 09:46:03;;;;;;;18.90;6.70;;;;;;;;;;5121166;27;20203;-56
2022/10/28 09:48:31;;;;;;;14.55;6.70;;;;;;;;;;5121976;28;20212;-58
2022/10/28 09:50:58;;;;;;;18.58;6.78;;;;;;;;;;5113493;28;20411;-58
2022/10/28 09:53:29;;;;;;;22.33;7.68;;;;;;;;;;5122171;27;20206;-60
2022/10/28 09:55:55;;;;;;;18.77;7.50;;;;;;;;;;5122028;28;20207;-59
2022/10/28 09:58:23;;;;;;;18.15;6.80;;;;;;;;;;5121981;28;20207;-59
2022/10/28 10:00:50;;;;;;;17.85;7.03;;;;;;;;;;5121501;28;20202;-60
2022/10/28 10:03:16;;;;;;;14.35;7.32;;;;;;;;;;5122436;28;20203;-59
2022/10/28 10:05:44;;;;;;;19.92;7.78;;;;;;;;;;5122711;28;20203;-59
2022/10/28 10:08:12;;;;;;;15.50;7.18;;;;;;;;;;5122040;28;20203;-59
2022/10/28 10:10:43;;;;;;;17.98;7.80;;;;;;;;;;5122851;28;20464;-60
2022/10/28 10:13:11;;;;;;;16.73;7.20;;;;;;;;;;5121695;28;20214;-60
2022/10/28 10:15:42;;;;;;;15.30;6.78;;;;;;;;;;5122346;28;20203;-60
2022/10/28 10:18:13;;;;;;;14.02;6.57;;;;;;;;;;5121310;28;20229;-57
2022/10/28 10:20:45;;;;;;;12.15;5.93;;;;;;;;;;5118758;28;20214;-58
2022/10/28 10:23:21;;;;;;;13.55;6.00;;;;;;;;;;5121525;28;20206;-59
2022/10/28 10:25:53;;;;;;;15.13;6.40;;;;;;;;;;5121226;28;20421;-60
2022/10/28 10:28:21;;;;;;;10.77;5.85;;;;;;;;;;5121103;28;20450;-59
2022/10/28 10:30:49;;;;;;;12.85;6.78;;;;;;;;;;5121954;28;20240;-59
2022/10/28 10:33:18;;;;;;;12.75;6.35;;;;;;;;;;5121986;28;20402;-58
2022/10/28 10:35:52;;;;;;;18.23;6.30;;;;;;;;;;5121528;28;20295;-59
2022/10/28 10:38:19;;;;;;;18.27;6.80;;;;;;;;;;5121370;28;20214;-60
2022/10/28 10:40:48;;;;;;;18.60;6.47;;;;;;;;;;5121873;27;20203;-59
2022/10/28 10:43:19;;;;;;;20.20;5.82;;;;;;;;;;5121195;28;20240;-59
2022/10/28 10:45:50;;;;;;;13.98;5.88;;;;;;;;;;5122201;28;20390;-59
2022/10/28 10:48:17;;;;;;;12.65;6.20;;;;;;;;;;5121586;28;20729;-59
2022/10/28 10:50:44;;;;;;;17.02;6.63;;;;;;;;;;5121364;28;20210;-59
2022/10/28 10:53:21;;;;;;;14.82;6.63;;;;;;;;;;5120060;27;20214;-60
2022/10/28 10:55:52;;;;;;;21.90;6.20;;;;;;;;;;5121479;28;20203;-60
2022/10/28 10:58:19;;;;;;;11.30;5.80;;;;;;;;;;5121208;28;20203;-59
2022/10/28 11:00:47;;;;;;;20.17;6.22;;;;;;;;;;5121029;28;20207;-58
2022/10/28 11:03:18;;;;;;;12.77;6.13;;;;;;;;;;5120375;28;20249;-59
2022/10/28 11:05:47;;;;;;;18.67;6.82;;;;;;;;;;5120085;28;20218;-59
2022/10/28 11:08:22;;;;;;;17.15;6.85;;;;;;;;;;5116159;28;20218;-58
2022/10/28 11:11:02;;;;;;;24.90;6.00;;;;;;;;;;5116920;27;20221;-59
2022/10/28 11:13:29;;;;;;;17.08;5.80;;;;;;;;;;5117254;28;20215;-58
2022/10/28 11:15:59;;;;;;;16.83;5.80;;;;;;;;;;5116253;28;20211;-59
2022/10/28 11:18:28;;;;;;;11.85;5.05;;;;;;;;;;5097137;28;20214;-59
2022/10/28 11:20:56;;;;;;;13.85;4.97;;;;;;;;;;5109038;28;20211;-56
2022/10/28 11:23:32;;;;;;;14.02;5.40;;;;;;;;;;5116017;27;20405;-58
2022/10/28 11:26:01;;;;;;;16.13;5.50;;;;;;;;;;5116155;28;20211;-58
2022/10/28 11:28:32;;;;;;;11.35;5.25;;;;;;;;;;5115702;28;20227;-58
2022/10/28 11:31:03;;;;;;;13.50;5.50;;;;;;;;;;5116501;28;20211;-59
2022/10/28 11:33:36;;;;;;;15.02;4.82;;;;;;;;;;5116636;28;20411;-58
2022/10/28 11:36:06;;;;;;;10.20;5.05;;;;;;;;;;5116804;28;20214;-59
2022/10/28 11:38:51;;;;;;;14.23;4.72;;;;;;;;;;5115318;28;20228;-58
2022/10/28 11:41:23;;;;;;;13.65;4.30;;;;;;;;;;5117434;28;20214;-59
2022/10/28 11:43:52;;;;;;;14.25;4.25;;;;;;;;;;5117699;28;20203;-59
2022/10/28 11:46:24;;;;;;;11.98;4.55;;;;;;;;;;5115945;27;20207;-59
2022/10/28 11:49:00;;;;;;;8.23;4.40;;;;;;;;;;5117127;27;20218;-58
2022/10/28 11:51:32;;;;;;;11.52;4.07;;;;;;;;;;5116353;28;20230;-58
2022/10/28 11:54:13;;;;;;;13.93;4.00;;;;;;;;;;5116312;28;20217;-58
2022/10/28 11:56:41;;;;;;;11.55;4.93;;;;;;;;;;5116200;28;20483;-58
2022/10/28 11:59:15;;;;;;;13.68;4.78;;;;;;;;;;5116136;28;20219;-57
2022/10/28 12:01:49;;;;;;;11.52;4.30;;;;;;;;;;5116608;28;20270;-59
2022/10/28 12:04:25;;;;;;;15.25;4.78;;;;;;;;;;5097195;28;20215;-59
2022/10/28 12:07:02;;;;;;;15.80;4.10;;;;;;;;;;5116208;28;20237;-59
2022/10/28 12:09:33;;;;;;;16.83;4.25;;;;;;;;;;5116612;28;20203;-56
2022/10/28 12:12:08;;;;;;;14.27;3.97;;;;;;;;;;5116401;28;20230;-59
2022/10/28 12:14:39;;;;;;;13.63;4.53;;;;;;;;;;5115692;27;20220;-56
2022/10/28 12:17:11;;;;;;;15.68;4.32;;;;;;;;;;5116154;28;20433;-57
2022/10/28 12:19:42;;;;;;;10.75;4.45;;;;;;;;;;5115978;28;20215;-57
2022/10/28 12:22:12;;;;;;;12.63;3.90;;;;;;;;;;5116339;28;20237;-58
2022/10/28 12:24:39;;;;;;;12.75;4.10;;;;;;;;;;5115025;28;20211;-59
2022/10/28 12:27:11;;;;;;;9.70;4.07;;;;;;;;;;5116388;28;20213;-59
2022/10/28 12:29:40;;;;;;;19.98;9.57;;;;;;;;;;5116106;28;20211;-57
2022/10/28 12:32:08;;;;;;;12.48;5.07;;;;;;;;;;5115430;28;20245;-61
2022/10/28 12:34:37;;;;;;;15.38;6.45;;;;;;;;;;5115745;28;20260;-61
2022/10/28 12:37:07;;;;;;;15.95;8.55;;;;;;;;;;5115865;28;20513;-61
2022/10/28 12:39:35;;;;;;;11.93;5.78;;;;;;;;;;5116068;28;20278;-61
2022/10/28 12:42:04;;;;;;;12.68;6.00;;;;;;;;;;5115861;28;20213;-59
2022/10/28 12:44:32;;;;;;;9.00;4.10;;;;;;;;;;5114565;28;20246;-59
2022/10/28 12:47:03;;;;;;;24.42;8.30;;;;;;;;;;5114997;28;20214;-60
2022/10/28 12:49:34;;;;;;;24.55;12.10;;;;;;;;;;5115100;28;20210;-59
2022/10/28 12:52:04;;;;;;;19.00;6.70;;;;;;;;;;5115260;28;20537;-60
2022/10/28 12:54:36;;;;;;;13.68;4.85;;;;;;;;;;5114044;28;20238;-60
2022/10/28 12:57:04;;;;;;;13.23;4.97;;;;;;;;;;5115348;28;20660;-60
2022/10/28 12:59:32;;;;;;;15.35;5.28;;;;;;;;;;5115139;28;20217;-58
2022/10/28 13:01:59;;;;;;;15.60;4.72;;;;;;;;;;5114479;28;20234;-57
2022/10/28 13:04:26;;;;;;;15.10;4.35;;;;;;;;;;5115089;28;20510;-57
2022/10/28 13:06:59;;;;;;;15.55;4.30;;;;;;;;;;5114612;28;20524;-57
2022/10/28 13:09:34;;;;;;;10.35;3.75;;;;;;;;;;5114945;28;20432;-58
2022/10/28 13:12:10;;;;;;;14.38;4.20;;;;;;;;;;5114515;28;20515;-57
2022/10/28 13:14:55;;;;;;;7.93;3.28;;;;;;;;;;5114156;28;20214;-57
2022/10/28 13:17:28;;;;;;;11.75;3.45;;;;;;;;;;5116000;28;20483;-59
2022/10/28 13:20:06;;;;;;;12.88;3.45;;;;;;;;;;5117984;28;20447;-60
2022/10/28 13:22:39;;;;;;;11.60;3.63;;;;;;;;;;5118201;28;20202;-60
2022/10/28 13:25:15;;;;;;;11.85;3.30;;;;;;;;;;5118840;28;20214;-58
2022/10/28 13:27:41;;;;;;;11.57;3.00;;;;;;;;;;5118380;28;20233;-58
2022/10/28 13:30:16;;;;;;;7.15;2.60;;;;;;;;;;5118739;28;20537;-58
2022/10/28 13:32:42;;;;;;;5.75;2.72;;;;;;;;;;5118588;28;20431;-58
2022/10/28 13:35:13;;;;;;;6.97;3.10;;;;;;;;;;5119058;28;20218;-57
2022/10/28 13:37:40;;;;;;;8.88;3.20;;;;;;;;;;5119670;28;20214;-57
2022/10/28 13:40:20;;;;;;;12.40;3.05;;;;;;;;;;5119741;28;20206;-58
2022/10/28 13:42:48;;;;;;;8.80;2.50;;;;;;;;;;5119674;28;20198;-56
2022/10/28 13:45:33;;;;;;;11.18;3.35;;;;;;;;;;5119496;28;20513;-58
2022/10/28 13:48:14;;;;;;;8.70;3.00;;;;;;;;;;5109194;28;20210;-58
2022/10/28 13:50:40;;;;;;;8.85;3.35;;;;;;;;;;5107439;28;20209;-57
2022/10/28 13:53:41;;;;;;;9.32;2.92;;;;;;;;;;5106293;28;20286;-57
2022/10/28 13:56:22;;;;;;;7.18;3.17;;;;;;;;;;5105231;28;20203;-57
2022/10/28 13:58:53;;;;;;;7.53;3.55;;;;;;;;;;5104914;28;20430;-57
2022/10/28 14:01:36;;;;;;;7.50;3.08;;;;;;;;;;5104926;28;20215;-57
2022/10/28 14:04:03;;;;;;;7.32;2.92;;;;;;;;;;5105191;28;20199;-58
2022/10/28 14:06:31;;;;;;;5.47;3.00;;;;;;;;;;5105275;28;20219;-56
2022/10/28 14:08:57;;;;;;;8.50;3.30;;;;;;;;;;5110649;28;20202;-58
2022/10/28 14:11:24;;;;;;;4.10;3.13;;;;;;;;;;5125414;28;20206;-59
2022/10/28 14:13:52;;;;;;;8.23;3.05;;;;;;;;;;5125585;28;20215;-58
2022/10/28 14:16:25;;;;;;;9.18;3.33;;;;;;;;;;5125019;28;20217;-58
2022/10/28 14:18:56;;;;;;;5.63;3.00;;;;;;;;;;5124958;28;20412;-58
2022/10/28 14:21:23;;;;;;;9.30;3.15;;;;;;;;;;5125390;28;20198;-58
2022/10/28 14:23:50;;;;;;;14.25;3.97;;;;;;;;;;5125273;28;20198;-58
2022/10/28 14:26:16;;;;;;;15.15;3.95;;;;;;;;;;5124994;28;20203;-58
2022/10/28 14:28:50;;;;;;;10.95;4.28;;;;;;;;;;5123192;28;20539;-57
2022/10/28 14:31:19;;;;;;;8.68;3.67;;;;;;;;;;5125003;28;20364;-58
2022/10/28 14:33:51;;;;;;;12.65;4.22;;;;;;;;;;5124834;27;20226;-57
2022/10/28 14:36:27;;;;;;;17.48;4.53;;;;;;;;;;5124763;28;20399;-58
2022/10/28 14:39:00;;;;;;;11.27;4.57;;;;;;;;;;5124453;28;20375;-58
2022/10/28 14:41:46;;;;;;;10.50;4.20;;;;;;;;;;5124604;28;20498;-58
2022/10/28 14:44:20;;;;;;;12.93;4.03;;;;;;;;;;5125008;28;20195;-57